sensor_id;sensor_type;location;lat;lon;timestamp;P1;durP1;ratioP1;P2;durP2;ratioP2
65206;SDS011;58477;48.072;11.970;2022-12-18T00:01:02;78.70;;;21.40;;
65206;SDS011;58477;48.072;11.970;2022-12-18T00:03:32;41.47;;;15.32;;
65206;SDS011;58477;48.072;11.970;2022-12-18T00:05:58;75.22;;;21.70;;
65206;SDS011;58477;48.072;11.970;2022-12-18T00:08:24;86.40;;;22.55;;
65206;SDS011;58477;48.072;11.970;2022-12-18T00:10:49;54.22;;;19.85;;
65206;SDS011;58477;48.072;11.970;2022-12-18T00:13:14;61.30;;;23.30;;
65206;SDS011;58477;48.072;11.970;2022-12-18T00:15:40;81.55;;;23.63;;
65206;SDS011;58477;48.072;11.970;2022-12-18T00:18:05;86.20;;;22.10;;
65206;SDS011;58477;48.072;11.970;2022-12-18T00:20:31;80.80;;;23.95;;
65206;SDS011;58477;48.072;11.970;2022-12-18T00:23:01;75.60;;;23.77;;
65206;SDS011;58477;48.072;11.970;2022-12-18T00:25:26;77.90;;;26.70;;
65206;SDS011;58477;48.072;11.970;2022-12-18T00:27:52;93.18;;;26.92;;
65206;SDS011;58477;48.072;11.970;2022-12-18T00:30:18;93.28;;;27.58;;
65206;SDS011;58477;48.072;11.970;2022-12-18T00:32:43;77.40;;;24.40;;
65206;SDS011;58477;48.072;11.970;2022-12-18T00:35:09;78.18;;;21.23;;
65206;SDS011;58477;48.072;11.970;2022-12-18T00:37:34;86.78;;;22.08;;
65206;SDS011;58477;48.072;11.970;2022-12-18T00:40:00;77.85;;;22.98;;
65206;SDS011;58477;48.072;11.970;2022-12-18T00:42:27;50.45;;;19.52;;
65206;SDS011;58477;48.072;11.970;2022-12-18T00:45:26;56.88;;;20.92;;
65206;SDS011;58477;48.072;11.970;2022-12-18T00:47:53;80.72;;;24.02;;
65206;SDS011;58477;48.072;11.970;2022-12-18T00:50:19;53.42;;;16.83;;
65206;SDS011;58477;48.072;11.970;2022-12-18T00:52:45;66.60;;;19.40;;
65206;SDS011;58477;48.072;11.970;2022-12-18T00:55:10;70.18;;;21.20;;
65206;SDS011;58477;48.072;11.970;2022-12-18T00:57:36;83.00;;;23.58;;
65206;SDS011;58477;48.072;11.970;2022-12-18T01:00:03;44.95;;;17.35;;
65206;SDS011;58477;48.072;11.970;2022-12-18T01:02:30;60.78;;;19.95;;
65206;SDS011;58477;48.072;11.970;2022-12-18T01:04:56;50.17;;;18.15;;
65206;SDS011;58477;48.072;11.970;2022-12-18T01:07:21;61.88;;;20.35;;
65206;SDS011;58477;48.072;11.970;2022-12-18T01:09:47;72.00;;;22.27;;
65206;SDS011;58477;48.072;11.970;2022-12-18T01:12:12;54.08;;;18.77;;
65206;SDS011;58477;48.072;11.970;2022-12-18T01:14:37;76.60;;;23.67;;
65206;SDS011;58477;48.072;11.970;2022-12-18T01:17:03;56.85;;;19.50;;
65206;SDS011;58477;48.072;11.970;2022-12-18T01:19:31;78.88;;;26.80;;
65206;SDS011;58477;48.072;11.970;2022-12-18T01:21:57;60.85;;;20.40;;
65206;SDS011;58477;48.072;11.970;2022-12-18T01:24:23;61.53;;;21.30;;
65206;SDS011;58477;48.072;11.970;2022-12-18T01:26:48;81.35;;;23.67;;
65206;SDS011;58477;48.072;11.970;2022-12-18T01:29:14;54.92;;;18.77;;
65206;SDS011;58477;48.072;11.970;2022-12-18T01:31:39;70.18;;;21.40;;
65206;SDS011;58477;48.072;11.970;2022-12-18T01:34:05;69.35;;;22.10;;
65206;SDS011;58477;48.072;11.970;2022-12-18T01:36:32;65.78;;;21.05;;
65206;SDS011;58477;48.072;11.970;2022-12-18T01:39:06;69.65;;;22.48;;
65206;SDS011;58477;48.072;11.970;2022-12-18T01:41:35;62.63;;;22.02;;
65206;SDS011;58477;48.072;11.970;2022-12-18T01:49:45;55.08;;;20.13;;
65206;SDS011;58477;48.072;11.970;2022-12-18T01:52:11;73.30;;;25.02;;
65206;SDS011;58477;48.072;11.970;2022-12-18T01:54:37;80.50;;;23.05;;
65206;SDS011;58477;48.072;11.970;2022-12-18T01:57:03;81.70;;;24.17;;
65206;SDS011;58477;48.072;11.970;2022-12-18T01:59:28;95.25;;;26.95;;
65206;SDS011;58477;48.072;11.970;2022-12-18T02:01:56;73.80;;;24.38;;
65206;SDS011;58477;48.072;11.970;2022-12-18T02:04:23;67.78;;;19.67;;
65206;SDS011;58477;48.072;11.970;2022-12-18T02:06:53;64.47;;;19.45;;
65206;SDS011;58477;48.072;11.970;2022-12-18T02:09:33;65.50;;;20.15;;
65206;SDS011;58477;48.072;11.970;2022-12-18T02:12:09;72.85;;;22.63;;
65206;SDS011;58477;48.072;11.970;2022-12-18T02:14:55;63.58;;;21.30;;
65206;SDS011;58477;48.072;11.970;2022-12-18T02:17:35;74.55;;;20.58;;
65206;SDS011;58477;48.072;11.970;2022-12-18T02:20:11;64.57;;;20.08;;
65206;SDS011;58477;48.072;11.970;2022-12-18T02:22:51;63.83;;;18.33;;
65206;SDS011;58477;48.072;11.970;2022-12-18T02:25:51;59.40;;;18.30;;
65206;SDS011;58477;48.072;11.970;2022-12-18T02:28:28;54.35;;;19.33;;
65206;SDS011;58477;48.072;11.970;2022-12-18T02:31:01;60.08;;;17.58;;
65206;SDS011;58477;48.072;11.970;2022-12-18T02:33:31;73.90;;;19.50;;
65206;SDS011;58477;48.072;11.970;2022-12-18T02:35:59;82.65;;;20.05;;
65206;SDS011;58477;48.072;11.970;2022-12-18T02:38:27;72.20;;;20.02;;
65206;SDS011;58477;48.072;11.970;2022-12-18T02:40:57;72.07;;;19.85;;
65206;SDS011;58477;48.072;11.970;2022-12-18T02:43:25;79.85;;;23.13;;
65206;SDS011;58477;48.072;11.970;2022-12-18T02:45:57;60.63;;;20.20;;
65206;SDS011;58477;48.072;11.970;2022-12-18T02:48:31;56.75;;;19.17;;
65206;SDS011;58477;48.072;11.970;2022-12-18T02:51:08;75.13;;;20.50;;
65206;SDS011;58477;48.072;11.970;2022-12-18T02:53:59;42.90;;;14.82;;
65206;SDS011;58477;48.072;11.970;2022-12-18T02:56:38;63.95;;;13.93;;
65206;SDS011;58477;48.072;11.970;2022-12-18T02:59:15;60.20;;;20.08;;
65206;SDS011;58477;48.072;11.970;2022-12-18T03:01:57;58.45;;;19.15;;
65206;SDS011;58477;48.072;11.970;2022-12-18T03:04:41;90.88;;;21.50;;
65206;SDS011;58477;48.072;11.970;2022-12-18T03:07:17;51.45;;;17.80;;
65206;SDS011;58477;48.072;11.970;2022-12-18T03:09:48;40.50;;;14.85;;
65206;SDS011;58477;48.072;11.970;2022-12-18T03:12:18;58.85;;;20.52;;
65206;SDS011;58477;48.072;11.970;2022-12-18T03:14:48;59.65;;;19.98;;
65206;SDS011;58477;48.072;11.970;2022-12-18T03:17:20;63.92;;;20.23;;
65206;SDS011;58477;48.072;11.970;2022-12-18T03:19:51;58.50;;;20.85;;
65206;SDS011;58477;48.072;11.970;2022-12-18T03:22:17;47.03;;;17.38;;
65206;SDS011;58477;48.072;11.970;2022-12-18T03:24:48;48.67;;;18.55;;
65206;SDS011;58477;48.072;11.970;2022-12-18T03:27:14;54.85;;;18.75;;
65206;SDS011;58477;48.072;11.970;2022-12-18T03:29:51;54.80;;;20.05;;
65206;SDS011;58477;48.072;11.970;2022-12-18T03:32:31;44.65;;;13.38;;
65206;SDS011;58477;48.072;11.970;2022-12-18T03:35:03;57.72;;;17.45;;
65206;SDS011;58477;48.072;11.970;2022-12-18T03:37:34;74.30;;;20.77;;
65206;SDS011;58477;48.072;11.970;2022-12-18T03:40:00;54.95;;;18.02;;
65206;SDS011;58477;48.072;11.970;2022-12-18T03:42:37;64.85;;;19.20;;
65206;SDS011;58477;48.072;11.970;2022-12-18T03:55:47;45.10;;;17.70;;
65206;SDS011;58477;48.072;11.970;2022-12-18T03:58:15;58.72;;;20.75;;
65206;SDS011;58477;48.072;11.970;2022-12-18T04:01:05;47.22;;;17.98;;
65206;SDS011;58477;48.072;11.970;2022-12-18T04:03:33;63.40;;;21.58;;
65206;SDS011;58477;48.072;11.970;2022-12-18T04:06:01;63.25;;;22.05;;
65206;SDS011;58477;48.072;11.970;2022-12-18T04:08:28;51.70;;;16.65;;
65206;SDS011;58477;48.072;11.970;2022-12-18T04:11:04;46.40;;;17.50;;
65206;SDS011;58477;48.072;11.970;2022-12-18T04:13:35;58.55;;;15.20;;
65206;SDS011;58477;48.072;11.970;2022-12-18T04:16:06;51.58;;;13.88;;
65206;SDS011;58477;48.072;11.970;2022-12-18T04:18:32;50.80;;;17.63;;
65206;SDS011;58477;48.072;11.970;2022-12-18T04:20:59;47.90;;;16.38;;
65206;SDS011;58477;48.072;11.970;2022-12-18T04:23:25;30.00;;;12.07;;
65206;SDS011;58477;48.072;11.970;2022-12-18T04:25:54;53.30;;;16.02;;
65206;SDS011;58477;48.072;11.970;2022-12-18T04:28:34;39.20;;;15.07;;
65206;SDS011;58477;48.072;11.970;2022-12-18T04:31:00;38.45;;;16.38;;
65206;SDS011;58477;48.072;11.970;2022-12-18T04:33:26;42.05;;;17.48;;
65206;SDS011;58477;48.072;11.970;2022-12-18T04:35:52;46.47;;;17.40;;
65206;SDS011;58477;48.072;11.970;2022-12-18T04:38:17;62.03;;;14.75;;
65206;SDS011;58477;48.072;11.970;2022-12-18T04:40:44;60.90;;;18.65;;
65206;SDS011;58477;48.072;11.970;2022-12-18T04:43:18;60.92;;;18.95;;
65206;SDS011;58477;48.072;11.970;2022-12-18T04:45:44;48.55;;;17.83;;
65206;SDS011;58477;48.072;11.970;2022-12-18T04:48:09;50.72;;;17.20;;
65206;SDS011;58477;48.072;11.970;2022-12-18T04:50:35;57.65;;;18.33;;
65206;SDS011;58477;48.072;11.970;2022-12-18T04:53:00;50.13;;;17.23;;
65206;SDS011;58477;48.072;11.970;2022-12-18T04:55:26;55.22;;;18.00;;
65206;SDS011;58477;48.072;11.970;2022-12-18T04:57:52;46.45;;;16.20;;
65206;SDS011;58477;48.072;11.970;2022-12-18T05:00:17;40.30;;;15.25;;
65206;SDS011;58477;48.072;11.970;2022-12-18T05:02:43;39.38;;;15.05;;
65206;SDS011;58477;48.072;11.970;2022-12-18T05:05:08;39.38;;;16.48;;
65206;SDS011;58477;48.072;11.970;2022-12-18T05:07:34;46.90;;;18.08;;
65206;SDS011;58477;48.072;11.970;2022-12-18T05:10:00;53.67;;;16.10;;
65206;SDS011;58477;48.072;11.970;2022-12-18T05:12:25;43.88;;;15.63;;
65206;SDS011;58477;48.072;11.970;2022-12-18T05:14:51;43.92;;;13.57;;
65206;SDS011;58477;48.072;11.970;2022-12-18T05:17:17;45.53;;;16.67;;
65206;SDS011;58477;48.072;11.970;2022-12-18T05:19:42;47.42;;;15.68;;
65206;SDS011;58477;48.072;11.970;2022-12-18T05:22:08;46.15;;;13.77;;
65206;SDS011;58477;48.072;11.970;2022-12-18T05:24:34;39.50;;;15.57;;
65206;SDS011;58477;48.072;11.970;2022-12-18T05:26:59;41.60;;;15.38;;
65206;SDS011;58477;48.072;11.970;2022-12-18T05:29:25;43.15;;;15.57;;
65206;SDS011;58477;48.072;11.970;2022-12-18T05:31:50;42.10;;;14.95;;
65206;SDS011;58477;48.072;11.970;2022-12-18T05:34:16;40.95;;;15.18;;
65206;SDS011;58477;48.072;11.970;2022-12-18T05:36:41;38.45;;;16.70;;
65206;SDS011;58477;48.072;11.970;2022-12-18T05:39:07;60.20;;;15.23;;
65206;SDS011;58477;48.072;11.970;2022-12-18T05:41:33;48.33;;;16.48;;
65206;SDS011;58477;48.072;11.970;2022-12-18T05:43:58;50.03;;;16.58;;
65206;SDS011;58477;48.072;11.970;2022-12-18T05:46:24;49.42;;;17.73;;
65206;SDS011;58477;48.072;11.970;2022-12-18T05:48:50;55.63;;;17.58;;
65206;SDS011;58477;48.072;11.970;2022-12-18T05:51:17;42.75;;;16.80;;
65206;SDS011;58477;48.072;11.970;2022-12-18T05:53:44;58.78;;;16.65;;
65206;SDS011;58477;48.072;11.970;2022-12-18T05:56:11;46.50;;;18.20;;
65206;SDS011;58477;48.072;11.970;2022-12-18T05:58:38;48.92;;;18.17;;
65206;SDS011;58477;48.072;11.970;2022-12-18T06:01:08;63.00;;;18.42;;
65206;SDS011;58477;48.072;11.970;2022-12-18T06:03:41;35.60;;;15.00;;
65206;SDS011;58477;48.072;11.970;2022-12-18T06:06:17;42.03;;;16.08;;
65206;SDS011;58477;48.072;11.970;2022-12-18T06:08:44;42.50;;;15.82;;
65206;SDS011;58477;48.072;11.970;2022-12-18T06:11:10;45.22;;;16.33;;
65206;SDS011;58477;48.072;11.970;2022-12-18T06:13:36;37.90;;;13.10;;
65206;SDS011;58477;48.072;11.970;2022-12-18T06:16:03;45.38;;;13.77;;
65206;SDS011;58477;48.072;11.970;2022-12-18T06:18:29;54.50;;;17.83;;
65206;SDS011;58477;48.072;11.970;2022-12-18T06:20:55;62.25;;;20.48;;
65206;SDS011;58477;48.072;11.970;2022-12-18T06:23:22;58.05;;;20.77;;
65206;SDS011;58477;48.072;11.970;2022-12-18T06:25:48;56.33;;;18.60;;
65206;SDS011;58477;48.072;11.970;2022-12-18T06:28:13;37.55;;;15.07;;
65206;SDS011;58477;48.072;11.970;2022-12-18T06:30:39;42.65;;;15.32;;
65206;SDS011;58477;48.072;11.970;2022-12-18T06:33:04;35.83;;;12.25;;
65206;SDS011;58477;48.072;11.970;2022-12-18T06:35:29;35.25;;;9.95;;
65206;SDS011;58477;48.072;11.970;2022-12-18T06:37:57;39.33;;;13.07;;
65206;SDS011;58477;48.072;11.970;2022-12-18T06:40:22;36.22;;;14.57;;
65206;SDS011;58477;48.072;11.970;2022-12-18T06:42:48;20.33;;;8.05;;
65206;SDS011;58477;48.072;11.970;2022-12-18T06:45:13;36.08;;;14.27;;
65206;SDS011;58477;48.072;11.970;2022-12-18T06:47:39;28.63;;;11.50;;
65206;SDS011;58477;48.072;11.970;2022-12-18T06:50:04;40.45;;;15.15;;
65206;SDS011;58477;48.072;11.970;2022-12-18T06:52:31;49.85;;;16.70;;
65206;SDS011;58477;48.072;11.970;2022-12-18T06:54:57;44.42;;;13.80;;
65206;SDS011;58477;48.072;11.970;2022-12-18T06:57:23;48.20;;;15.75;;
65206;SDS011;58477;48.072;11.970;2022-12-18T06:59:48;25.17;;;11.10;;
65206;SDS011;58477;48.072;11.970;2022-12-18T07:02:13;48.60;;;16.98;;
65206;SDS011;58477;48.072;11.970;2022-12-18T07:04:39;44.13;;;15.00;;
65206;SDS011;58477;48.072;11.970;2022-12-18T07:07:05;44.58;;;15.88;;
65206;SDS011;58477;48.072;11.970;2022-12-18T07:09:30;33.10;;;12.63;;
65206;SDS011;58477;48.072;11.970;2022-12-18T07:11:56;33.53;;;14.07;;
65206;SDS011;58477;48.072;11.970;2022-12-18T07:14:21;37.90;;;14.32;;
65206;SDS011;58477;48.072;11.970;2022-12-18T07:16:46;38.25;;;15.02;;
65206;SDS011;58477;48.072;11.970;2022-12-18T07:19:12;30.27;;;12.82;;
65206;SDS011;58477;48.072;11.970;2022-12-18T07:21:37;32.05;;;13.23;;
65206;SDS011;58477;48.072;11.970;2022-12-18T07:24:03;27.40;;;12.13;;
65206;SDS011;58477;48.072;11.970;2022-12-18T07:26:29;44.47;;;16.05;;
65206;SDS011;58477;48.072;11.970;2022-12-18T07:28:55;54.78;;;19.05;;
65206;SDS011;58477;48.072;11.970;2022-12-18T07:31:22;52.72;;;16.42;;
65206;SDS011;58477;48.072;11.970;2022-12-18T07:33:49;38.75;;;15.57;;
65206;SDS011;58477;48.072;11.970;2022-12-18T07:36:15;38.83;;;16.58;;
65206;SDS011;58477;48.072;11.970;2022-12-18T07:38:41;40.80;;;15.35;;
65206;SDS011;58477;48.072;11.970;2022-12-18T07:41:08;41.35;;;15.40;;
65206;SDS011;58477;48.072;11.970;2022-12-18T07:43:35;29.17;;;10.90;;
65206;SDS011;58477;48.072;11.970;2022-12-18T07:46:01;38.70;;;15.10;;
65206;SDS011;58477;48.072;11.970;2022-12-18T07:48:27;48.28;;;15.30;;
65206;SDS011;58477;48.072;11.970;2022-12-18T07:50:53;46.35;;;13.85;;
65206;SDS011;58477;48.072;11.970;2022-12-18T07:53:22;26.08;;;11.38;;
65206;SDS011;58477;48.072;11.970;2022-12-18T07:55:48;37.78;;;15.57;;
65206;SDS011;58477;48.072;11.970;2022-12-18T07:58:13;34.83;;;13.45;;
65206;SDS011;58477;48.072;11.970;2022-12-18T08:00:39;42.53;;;15.05;;
65206;SDS011;58477;48.072;11.970;2022-12-18T08:03:04;36.70;;;15.93;;
65206;SDS011;58477;48.072;11.970;2022-12-18T08:05:29;51.95;;;13.35;;
65206;SDS011;58477;48.072;11.970;2022-12-18T08:07:55;42.40;;;14.23;;
65206;SDS011;58477;48.072;11.970;2022-12-18T08:10:21;33.10;;;11.93;;
65206;SDS011;58477;48.072;11.970;2022-12-18T08:12:50;47.05;;;13.38;;
65206;SDS011;58477;48.072;11.970;2022-12-18T08:15:16;30.77;;;13.25;;
65206;SDS011;58477;48.072;11.970;2022-12-18T08:17:41;40.55;;;10.80;;
65206;SDS011;58477;48.072;11.970;2022-12-18T08:20:07;32.38;;;13.57;;
65206;SDS011;58477;48.072;11.970;2022-12-18T08:22:34;51.13;;;10.27;;
65206;SDS011;58477;48.072;11.970;2022-12-18T08:25:00;59.97;;;19.42;;
65206;SDS011;58477;48.072;11.970;2022-12-18T08:27:26;47.95;;;13.52;;
65206;SDS011;58477;48.072;11.970;2022-12-18T08:29:52;45.08;;;14.35;;
65206;SDS011;58477;48.072;11.970;2022-12-18T08:32:17;46.65;;;15.15;;
65206;SDS011;58477;48.072;11.970;2022-12-18T08:34:42;50.33;;;12.93;;
65206;SDS011;58477;48.072;11.970;2022-12-18T08:37:08;40.85;;;13.95;;
65206;SDS011;58477;48.072;11.970;2022-12-18T08:39:33;38.42;;;13.93;;
65206;SDS011;58477;48.072;11.970;2022-12-18T08:41:59;37.42;;;13.85;;
65206;SDS011;58477;48.072;11.970;2022-12-18T08:44:43;28.50;;;13.98;;
65206;SDS011;58477;48.072;11.970;2022-12-18T08:47:08;31.27;;;14.27;;
65206;SDS011;58477;48.072;11.970;2022-12-18T08:49:34;30.83;;;13.07;;
65206;SDS011;58477;48.072;11.970;2022-12-18T08:52:00;49.63;;;15.43;;
65206;SDS011;58477;48.072;11.970;2022-12-18T08:54:28;38.90;;;16.25;;
65206;SDS011;58477;48.072;11.970;2022-12-18T08:56:53;46.83;;;15.52;;
65206;SDS011;58477;48.072;11.970;2022-12-18T08:59:19;36.80;;;13.43;;
65206;SDS011;58477;48.072;11.970;2022-12-18T09:01:44;41.42;;;15.07;;
65206;SDS011;58477;48.072;11.970;2022-12-18T09:04:11;32.03;;;13.30;;
65206;SDS011;58477;48.072;11.970;2022-12-18T09:06:37;30.75;;;11.35;;
65206;SDS011;58477;48.072;11.970;2022-12-18T09:09:03;29.70;;;11.93;;
65206;SDS011;58477;48.072;11.970;2022-12-18T09:11:30;38.60;;;14.80;;
65206;SDS011;58477;48.072;11.970;2022-12-18T09:13:56;28.00;;;11.98;;
65206;SDS011;58477;48.072;11.970;2022-12-18T09:16:23;21.00;;;8.98;;
65206;SDS011;58477;48.072;11.970;2022-12-18T09:18:49;39.75;;;16.13;;
65206;SDS011;58477;48.072;11.970;2022-12-18T09:21:16;29.73;;;12.70;;
65206;SDS011;58477;48.072;11.970;2022-12-18T09:23:43;33.67;;;15.27;;
65206;SDS011;58477;48.072;11.970;2022-12-18T09:26:09;28.15;;;11.48;;
65206;SDS011;58477;48.072;11.970;2022-12-18T09:28:35;32.22;;;12.98;;
65206;SDS011;58477;48.072;11.970;2022-12-18T09:31:03;23.77;;;9.23;;
65206;SDS011;58477;48.072;11.970;2022-12-18T09:33:33;35.78;;;14.32;;
65206;SDS011;58477;48.072;11.970;2022-12-18T09:36:03;35.22;;;15.73;;
65206;SDS011;58477;48.072;11.970;2022-12-18T09:38:30;45.80;;;16.65;;
65206;SDS011;58477;48.072;11.970;2022-12-18T09:40:57;33.90;;;12.98;;
65206;SDS011;58477;48.072;11.970;2022-12-18T09:43:33;33.35;;;12.13;;
65206;SDS011;58477;48.072;11.970;2022-12-18T09:46:06;40.88;;;13.73;;
65206;SDS011;58477;48.072;11.970;2022-12-18T09:48:35;42.28;;;17.52;;
65206;SDS011;58477;48.072;11.970;2022-12-18T09:51:08;35.90;;;14.27;;
65206;SDS011;58477;48.072;11.970;2022-12-18T09:53:39;28.33;;;13.40;;
65206;SDS011;58477;48.072;11.970;2022-12-18T09:56:10;40.70;;;15.20;;
65206;SDS011;58477;48.072;11.970;2022-12-18T09:58:53;29.75;;;13.13;;
65206;SDS011;58477;48.072;11.970;2022-12-18T10:01:22;34.47;;;14.27;;
65206;SDS011;58477;48.072;11.970;2022-12-18T10:03:49;36.55;;;15.02;;
65206;SDS011;58477;48.072;11.970;2022-12-18T10:19:47;25.33;;;10.95;;
65206;SDS011;58477;48.072;11.970;2022-12-18T10:25:20;42.28;;;15.10;;
65206;SDS011;58477;48.072;11.970;2022-12-18T10:27:46;31.80;;;12.60;;
65206;SDS011;58477;48.072;11.970;2022-12-18T10:30:14;32.28;;;14.30;;
65206;SDS011;58477;48.072;11.970;2022-12-18T10:32:42;33.67;;;13.38;;
65206;SDS011;58477;48.072;11.970;2022-12-18T10:35:11;38.13;;;15.52;;
65206;SDS011;58477;48.072;11.970;2022-12-18T10:40:47;26.00;;;11.77;;
65206;SDS011;58477;48.072;11.970;2022-12-18T10:43:23;31.08;;;11.88;;
65206;SDS011;58477;48.072;11.970;2022-12-18T10:51:18;20.67;;;9.95;;
65206;SDS011;58477;48.072;11.970;2022-12-18T10:54:14;22.92;;;10.18;;
65206;SDS011;58477;48.072;11.970;2022-12-18T10:56:42;22.02;;;10.10;;
65206;SDS011;58477;48.072;11.970;2022-12-18T10:59:09;24.45;;;10.30;;
65206;SDS011;58477;48.072;11.970;2022-12-18T11:01:47;24.80;;;9.95;;
65206;SDS011;58477;48.072;11.970;2022-12-18T11:04:21;22.27;;;11.13;;
65206;SDS011;58477;48.072;11.970;2022-12-18T11:09:31;31.00;;;11.85;;
65206;SDS011;58477;48.072;11.970;2022-12-18T11:11:58;28.17;;;12.73;;
65206;SDS011;58477;48.072;11.970;2022-12-18T11:14:33;17.35;;;8.02;;
65206;SDS011;58477;48.072;11.970;2022-12-18T11:17:16;26.60;;;12.50;;
65206;SDS011;58477;48.072;11.970;2022-12-18T11:19:52;31.50;;;14.07;;
65206;SDS011;58477;48.072;11.970;2022-12-18T11:22:20;31.60;;;14.52;;
65206;SDS011;58477;48.072;11.970;2022-12-18T11:24:54;33.58;;;13.52;;
65206;SDS011;58477;48.072;11.970;2022-12-18T11:27:24;33.55;;;13.57;;
65206;SDS011;58477;48.072;11.970;2022-12-18T11:29:50;32.15;;;12.50;;
65206;SDS011;58477;48.072;11.970;2022-12-18T11:38:02;25.08;;;10.75;;
65206;SDS011;58477;48.072;11.970;2022-12-18T11:40:36;30.90;;;11.98;;
65206;SDS011;58477;48.072;11.970;2022-12-18T11:46:09;28.80;;;13.18;;
65206;SDS011;58477;48.072;11.970;2022-12-18T11:48:41;35.70;;;15.95;;
65206;SDS011;58477;48.072;11.970;2022-12-18T11:51:14;36.38;;;15.07;;
65206;SDS011;58477;48.072;11.970;2022-12-18T11:53:48;34.90;;;16.50;;
65206;SDS011;58477;48.072;11.970;2022-12-18T11:59:15;29.63;;;13.35;;
65206;SDS011;58477;48.072;11.970;2022-12-18T12:01:51;33.45;;;14.77;;
65206;SDS011;58477;48.072;11.970;2022-12-18T12:12:45;27.87;;;11.07;;
65206;SDS011;58477;48.072;11.970;2022-12-18T12:15:24;25.90;;;10.18;;
65206;SDS011;58477;48.072;11.970;2022-12-18T12:26:02;44.40;;;15.57;;
65206;SDS011;58477;48.072;11.970;2022-12-18T12:28:36;30.27;;;13.80;;
65206;SDS011;58477;48.072;11.970;2022-12-18T12:33:58;30.13;;;13.32;;
65206;SDS011;58477;48.072;11.970;2022-12-18T12:39:43;31.13;;;13.88;;
65206;SDS011;58477;48.072;11.970;2022-12-18T12:42:27;37.40;;;16.40;;
65206;SDS011;58477;48.072;11.970;2022-12-18T12:45:18;45.35;;;16.33;;
65206;SDS011;58477;48.072;11.970;2022-12-18T12:47:48;36.10;;;15.27;;
65206;SDS011;58477;48.072;11.970;2022-12-18T12:50:16;34.30;;;14.15;;
65206;SDS011;58477;48.072;11.970;2022-12-18T12:52:45;35.17;;;14.35;;
65206;SDS011;58477;48.072;11.970;2022-12-18T12:55:21;21.27;;;9.65;;
65206;SDS011;58477;48.072;11.970;2022-12-18T13:00:44;32.83;;;14.50;;
65206;SDS011;58477;48.072;11.970;2022-12-18T13:05:58;37.83;;;15.68;;
65206;SDS011;58477;48.072;11.970;2022-12-18T13:08:29;36.70;;;15.15;;
65206;SDS011;58477;48.072;11.970;2022-12-18T13:10:57;39.67;;;16.35;;
65206;SDS011;58477;48.072;11.970;2022-12-18T13:13:52;41.42;;;18.33;;
65206;SDS011;58477;48.072;11.970;2022-12-18T13:16:23;32.88;;;14.77;;
65206;SDS011;58477;48.072;11.970;2022-12-18T13:18:54;43.42;;;16.83;;
65206;SDS011;58477;48.072;11.970;2022-12-18T13:21:28;27.25;;;11.23;;
65206;SDS011;58477;48.072;11.970;2022-12-18T13:23:55;28.38;;;11.68;;
65206;SDS011;58477;48.072;11.970;2022-12-18T13:36:46;41.88;;;15.40;;
65206;SDS011;58477;48.072;11.970;2022-12-18T13:41:48;49.80;;;19.60;;
65206;SDS011;58477;48.072;11.970;2022-12-18T13:47:07;41.15;;;15.23;;
65206;SDS011;58477;48.072;11.970;2022-12-18T13:49:53;32.15;;;14.88;;
65206;SDS011;58477;48.072;11.970;2022-12-18T13:52:33;42.53;;;17.25;;
65206;SDS011;58477;48.072;11.970;2022-12-18T13:57:30;41.03;;;14.18;;
65206;SDS011;58477;48.072;11.970;2022-12-18T13:59:58;26.13;;;12.30;;
65206;SDS011;58477;48.072;11.970;2022-12-18T14:02:39;27.38;;;12.00;;
65206;SDS011;58477;48.072;11.970;2022-12-18T14:05:21;30.77;;;14.30;;
65206;SDS011;58477;48.072;11.970;2022-12-18T14:07:48;37.53;;;14.45;;
65206;SDS011;58477;48.072;11.970;2022-12-18T14:10:14;33.67;;;15.07;;
65206;SDS011;58477;48.072;11.970;2022-12-18T14:12:44;30.75;;;13.80;;
65206;SDS011;58477;48.072;11.970;2022-12-18T14:20:39;44.35;;;16.00;;
65206;SDS011;58477;48.072;11.970;2022-12-18T14:23:24;35.47;;;14.95;;
65206;SDS011;58477;48.072;11.970;2022-12-18T14:25:50;39.72;;;16.73;;
65206;SDS011;58477;48.072;11.970;2022-12-18T14:28:16;28.15;;;11.57;;
65206;SDS011;58477;48.072;11.970;2022-12-18T14:30:43;30.00;;;12.45;;
65206;SDS011;58477;48.072;11.970;2022-12-18T14:33:11;32.83;;;13.10;;
65206;SDS011;58477;48.072;11.970;2022-12-18T14:35:51;29.25;;;12.38;;
65206;SDS011;58477;48.072;11.970;2022-12-18T14:38:24;35.70;;;15.50;;
65206;SDS011;58477;48.072;11.970;2022-12-18T14:40:56;32.75;;;13.55;;
65206;SDS011;58477;48.072;11.970;2022-12-18T14:43:35;33.17;;;14.50;;
65206;SDS011;58477;48.072;11.970;2022-12-18T14:46:06;37.33;;;14.50;;
65206;SDS011;58477;48.072;11.970;2022-12-18T14:48:53;33.55;;;13.95;;
65206;SDS011;58477;48.072;11.970;2022-12-18T14:51:20;28.15;;;12.63;;
65206;SDS011;58477;48.072;11.970;2022-12-18T14:53:48;24.42;;;10.40;;
65206;SDS011;58477;48.072;11.970;2022-12-18T14:56:17;25.90;;;10.27;;
65206;SDS011;58477;48.072;11.970;2022-12-18T14:58:47;26.88;;;11.55;;
65206;SDS011;58477;48.072;11.970;2022-12-18T15:01:22;37.65;;;16.40;;
65206;SDS011;58477;48.072;11.970;2022-12-18T15:03:50;43.10;;;16.20;;
65206;SDS011;58477;48.072;11.970;2022-12-18T15:06:21;37.75;;;16.05;;
65206;SDS011;58477;48.072;11.970;2022-12-18T15:08:48;41.60;;;16.95;;
65206;SDS011;58477;48.072;11.970;2022-12-18T15:13:54;39.55;;;13.98;;
65206;SDS011;58477;48.072;11.970;2022-12-18T15:16:19;35.90;;;15.15;;
65206;SDS011;58477;48.072;11.970;2022-12-18T15:18:45;44.30;;;16.80;;
65206;SDS011;58477;48.072;11.970;2022-12-18T15:21:17;35.55;;;15.32;;
65206;SDS011;58477;48.072;11.970;2022-12-18T15:26:10;29.55;;;12.25;;
65206;SDS011;58477;48.072;11.970;2022-12-18T15:28:44;45.60;;;16.27;;
65206;SDS011;58477;48.072;11.970;2022-12-18T15:36:17;26.33;;;12.93;;
65206;SDS011;58477;48.072;11.970;2022-12-18T15:38:51;39.33;;;15.02;;
65206;SDS011;58477;48.072;11.970;2022-12-18T15:41:19;45.25;;;19.15;;
65206;SDS011;58477;48.072;11.970;2022-12-18T15:43:47;37.50;;;14.70;;
65206;SDS011;58477;48.072;11.970;2022-12-18T15:46:15;35.17;;;14.68;;
65206;SDS011;58477;48.072;11.970;2022-12-18T15:48:45;31.23;;;12.82;;
65206;SDS011;58477;48.072;11.970;2022-12-18T15:53:45;39.67;;;15.20;;
65206;SDS011;58477;48.072;11.970;2022-12-18T15:56:12;38.33;;;16.17;;
65206;SDS011;58477;48.072;11.970;2022-12-18T15:58:57;30.65;;;13.90;;
65206;SDS011;58477;48.072;11.970;2022-12-18T16:01:24;33.72;;;13.57;;
65206;SDS011;58477;48.072;11.970;2022-12-18T16:03:51;33.53;;;14.35;;
65206;SDS011;58477;48.072;11.970;2022-12-18T16:06:17;38.88;;;16.40;;
65206;SDS011;58477;48.072;11.970;2022-12-18T16:08:42;36.22;;;15.50;;
65206;SDS011;58477;48.072;11.970;2022-12-18T16:11:12;36.35;;;16.20;;
65206;SDS011;58477;48.072;11.970;2022-12-18T16:14:19;36.67;;;16.02;;
65206;SDS011;58477;48.072;11.970;2022-12-18T16:16:47;40.47;;;16.42;;
65206;SDS011;58477;48.072;11.970;2022-12-18T16:19:15;46.40;;;16.02;;
65206;SDS011;58477;48.072;11.970;2022-12-18T16:21:41;45.53;;;17.08;;